Time;durP1;ratioP1;P1;durP2;ratioP2;P2;SDS_P1;SDS_P2;PMS_P1;PMS_P2;Temp;Humidity;BMP_temperature;BMP_pressure;BME280_temperature;BME280_humidity;BME280_pressure;Samples;Min_cycle;Max_cycle;Signal;HPM_P1;HPM_P2
2022/03/21 00:00:56;;;;;;;11.85;8.90;;;4.10;99.90;;;;;;5003808;28;20501;-58
2022/03/21 00:03:24;;;;;;;11.30;8.10;;;4.10;99.90;;;;;;5001670;28;20588;-58
2022/03/21 00:05:51;;;;;;;11.77;9.13;;;4.10;99.90;;;;;;5001899;28;20049;-58
2022/03/21 00:08:18;;;;;;;11.18;9.25;;;4.00;99.90;;;;;;5003908;28;20077;-58
2022/03/21 00:10:45;;;;;;;10.98;9.15;;;4.00;99.90;;;;;;5004351;28;20128;-58
2022/03/21 00:13:15;;;;;;;11.70;9.15;;;4.00;99.90;;;;;;4986018;28;20081;-58
2022/03/21 00:15:43;;;;;;;11.20;8.80;;;4.00;99.90;;;;;;5003933;28;20504;-58
2022/03/21 00:18:13;;;;;;;13.20;9.43;;;4.00;99.90;;;;;;5004202;28;20918;-58
2022/03/21 00:20:41;;;;;;;11.50;9.15;;;4.00;99.90;;;;;;5003214;28;20045;-58
2022/03/21 00:23:08;;;;;;;11.13;8.93;;;4.00;99.90;;;;;;5003642;28;20129;-58
2022/03/21 00:25:35;;;;;;;12.00;9.68;;;3.90;99.90;;;;;;5003523;28;20140;-58
2022/03/21 00:28:02;;;;;;;11.55;9.00;;;3.90;99.90;;;;;;5002699;28;20407;-59
2022/03/21 00:30:29;;;;;;;11.65;9.00;;;3.90;99.90;;;;;;5021740;28;20041;-57
2022/03/21 00:32:56;;;;;;;13.32;9.27;;;3.80;99.90;;;;;;5022037;28;20056;-58
2022/03/21 00:35:23;;;;;;;10.20;8.73;;;3.80;99.90;;;;;;5015466;28;20120;-59
2022/03/21 00:37:50;;;;;;;11.50;8.85;;;3.70;99.90;;;;;;5000845;28;20413;-59
2022/03/21 00:40:17;;;;;;;9.85;8.23;;;3.70;99.90;;;;;;5002117;28;20136;-59
2022/03/21 00:42:45;;;;;;;12.60;8.70;;;3.70;99.90;;;;;;5001599;28;20537;-59
2022/03/21 00:45:18;;;;;;;11.05;8.52;;;3.60;99.90;;;;;;5002878;28;20161;-58
2022/03/21 00:47:46;;;;;;;11.13;8.27;;;3.60;99.90;;;;;;5000860;28;20034;-59
2022/03/21 00:50:15;;;;;;;11.23;7.63;;;3.60;99.90;;;;;;5001303;28;20164;-58
2022/03/21 00:52:50;;;;;;;10.93;8.95;;;3.60;99.90;;;;;;5019195;28;20051;-59
2022/03/21 00:55:17;;;;;;;12.07;9.07;;;3.50;99.90;;;;;;5021892;28;20140;-59
2022/03/21 00:57:44;;;;;;;10.57;8.77;;;3.50;99.90;;;;;;5021307;28;20045;-59
2022/03/21 01:00:16;;;;;;;9.25;8.07;;;3.50;99.90;;;;;;5021618;28;20416;-57
2022/03/21 01:02:43;;;;;;;12.70;8.27;;;3.40;99.90;;;;;;5021363;28;20136;-59
2022/03/21 01:05:10;;;;;;;12.45;8.65;;;3.40;99.90;;;;;;5020520;28;20045;-59
2022/03/21 01:07:38;;;;;;;11.40;8.50;;;3.30;99.90;;;;;;5020334;28;20247;-59
2022/03/21 01:10:06;;;;;;;12.27;8.93;;;3.30;99.90;;;;;;5020226;28;20084;-59
2022/03/21 01:12:33;;;;;;;11.13;8.38;;;3.20;99.90;;;;;;5021027;28;20165;-59
2022/03/21 01:14:59;;;;;;;12.93;8.95;;;3.10;99.90;;;;;;5011705;28;20136;-59
2022/03/21 01:17:27;;;;;;;11.75;8.40;;;3.10;99.90;;;;;;5002365;28;20081;-59
2022/03/21 01:19:53;;;;;;;10.65;8.80;;;3.10;99.90;;;;;;5000721;28;20136;-59
2022/03/21 01:22:20;;;;;;;10.90;8.73;;;3.10;99.90;;;;;;5001417;28;20564;-58
2022/03/21 01:24:47;;;;;;;10.70;8.13;;;3.10;99.90;;;;;;5002621;28;20505;-59
2022/03/21 01:27:14;;;;;;;12.65;8.98;;;3.00;99.90;;;;;;5002529;28;20081;-59
2022/03/21 01:29:40;;;;;;;12.07;10.13;;;3.00;99.90;;;;;;5002988;28;20149;-59
2022/03/21 01:32:07;;;;;;;12.10;9.20;;;2.90;99.90;;;;;;5001897;28;20085;-59
2022/03/21 01:34:34;;;;;;;12.80;10.05;;;2.90;99.90;;;;;;5020142;28;20132;-59
2022/03/21 01:37:01;;;;;;;13.93;9.88;;;2.90;99.90;;;;;;5002913;28;20417;-59
2022/03/21 01:39:32;;;;;;;12.80;9.98;;;2.90;99.90;;;;;;5012205;28;20091;-59
2022/03/21 01:41:58;;;;;;;11.50;9.57;;;2.90;99.90;;;;;;5003782;28;20112;-58
2022/03/21 01:44:25;;;;;;;13.20;9.70;;;2.90;99.90;;;;;;5004458;28;20462;-58
2022/03/21 01:46:52;;;;;;;13.40;10.50;;;2.90;99.90;;;;;;5012590;28;20141;-58
2022/03/21 01:49:19;;;;;;;12.95;9.02;;;2.90;99.90;;;;;;5008269;28;20084;-56
2022/03/21 01:51:45;;;;;;;12.43;9.55;;;2.80;99.90;;;;;;5011253;28;20160;-58
2022/03/21 01:56:59;;;;;;;14.65;10.10;;;2.70;99.90;;;;;;5007668;28;20366;-60
2022/03/21 01:59:26;;;;;;;11.70;9.05;;;2.60;99.90;;;;;;5005099;28;20057;-59
2022/03/21 02:01:53;;;;;;;11.73;8.85;;;2.60;99.90;;;;;;5008363;28;20057;-59
2022/03/21 02:04:20;;;;;;;12.02;8.48;;;2.60;99.90;;;;;;5017162;28;20049;-58
2022/03/21 02:06:47;;;;;;;11.98;8.68;;;2.60;99.90;;;;;;5017545;28;20080;-59
2022/03/21 02:09:14;;;;;;;10.35;7.60;;;2.50;99.90;;;;;;5018344;28;20125;-59
2022/03/21 02:11:41;;;;;;;12.50;9.48;;;2.50;99.90;;;;;;5018528;28;20132;-59
2022/03/21 02:14:08;;;;;;;11.52;8.35;;;2.50;99.90;;;;;;5017734;28;20089;-58
2022/03/21 02:16:36;;;;;;;11.35;9.00;;;2.50;99.90;;;;;;5016214;28;20096;-58
2022/03/21 02:19:08;;;;;;;12.13;8.75;;;2.50;99.90;;;;;;5018221;28;20481;-58
2022/03/21 02:21:47;;;;;;;11.13;9.23;;;2.50;99.90;;;;;;5006402;28;20687;-58
2022/03/21 02:24:29;;;;;;;12.20;9.43;;;2.40;99.90;;;;;;5013700;28;20148;-58
2022/03/21 02:26:57;;;;;;;14.05;9.32;;;2.40;99.90;;;;;;4998884;28;20136;-58
2022/03/21 02:29:24;;;;;;;13.23;8.85;;;2.40;99.90;;;;;;4981952;28;20081;-56
2022/03/21 02:31:53;;;;;;;11.35;9.32;;;2.40;99.90;;;;;;5012397;28;20090;-58
2022/03/21 02:34:22;;;;;;;9.70;7.88;;;2.40;99.90;;;;;;5016407;28;20493;-58
2022/03/21 02:36:54;;;;;;;11.27;8.38;;;2.40;99.90;;;;;;5001212;28;20077;-58
2022/03/21 02:39:21;;;;;;;12.82;9.02;;;2.40;99.90;;;;;;5000730;28;20104;-56
2022/03/21 02:41:48;;;;;;;10.80;8.00;;;2.30;99.90;;;;;;4993718;28;20120;-59
2022/03/21 02:44:15;;;;;;;11.20;8.60;;;2.30;99.90;;;;;;5012299;28;20125;-58
2022/03/21 02:46:41;;;;;;;11.45;9.25;;;2.30;99.90;;;;;;5003551;28;20084;-57
2022/03/21 02:49:08;;;;;;;11.57;8.85;;;2.30;99.90;;;;;;5003507;28;20132;-58
2022/03/21 02:51:37;;;;;;;12.93;9.88;;;2.30;99.90;;;;;;4997630;28;20080;-58
2022/03/21 02:54:04;;;;;;;12.80;9.48;;;2.20;99.90;;;;;;5015138;28;20133;-59
2022/03/21 02:56:31;;;;;;;14.57;10.05;;;2.20;99.90;;;;;;5003608;28;20041;-58
2022/03/21 02:58:58;;;;;;;13.20;8.90;;;2.20;99.90;;;;;;5001790;28;20145;-59
2022/03/21 03:01:25;;;;;;;10.77;8.82;;;2.20;99.90;;;;;;5002076;28;20161;-58
2022/03/21 03:03:52;;;;;;;13.48;9.85;;;2.20;99.90;;;;;;5015938;28;20045;-58
2022/03/21 03:06:19;;;;;;;11.80;8.77;;;2.20;99.90;;;;;;5012588;28;20081;-58
2022/03/21 03:08:46;;;;;;;11.60;8.38;;;2.10;99.90;;;;;;5002133;28;20180;-58
2022/03/21 03:11:12;;;;;;;12.60;9.85;;;2.10;99.90;;;;;;5003365;28;20160;-58
2022/03/21 03:13:39;;;;;;;11.60;8.95;;;2.10;99.90;;;;;;5002909;28;20494;-58
2022/03/21 03:16:06;;;;;;;11.20;9.13;;;2.10;99.90;;;;;;5003385;28;20085;-58
2022/03/21 03:18:33;;;;;;;11.90;8.48;;;2.10;99.90;;;;;;5001895;28;20046;-58
2022/03/21 03:21:00;;;;;;;12.75;9.30;;;2.00;99.90;;;;;;5021082;28;20080;-57
2022/03/21 03:23:28;;;;;;;11.32;8.52;;;2.00;99.90;;;;;;5019109;28;20103;-58
2022/03/21 03:25:59;;;;;;;10.40;8.20;;;2.00;99.90;;;;;;5020593;28;20091;-59
2022/03/21 03:28:26;;;;;;;14.02;10.23;;;2.00;99.90;;;;;;5021615;28;20084;-58
2022/03/21 03:31:10;;;;;;;11.30;8.77;;;2.00;99.90;;;;;;5020949;28;20079;-58
2022/03/21 03:33:37;;;;;;;12.68;9.43;;;1.90;99.90;;;;;;5024064;28;20113;-58
2022/03/21 03:36:05;;;;;;;12.85;9.23;;;1.90;99.90;;;;;;5012152;28;20081;-58
2022/03/21 03:38:31;;;;;;;12.15;9.18;;;1.90;99.90;;;;;;5004441;28;20112;-58
2022/03/21 03:40:58;;;;;;;11.40;8.55;;;1.80;99.90;;;;;;5006475;28;20085;-58
2022/03/21 03:43:25;;;;;;;12.45;9.20;;;1.80;99.90;;;;;;5006133;28;20080;-58
2022/03/21 03:45:52;;;;;;;11.48;8.38;;;1.80;99.90;;;;;;5006572;28;20128;-57
2022/03/21 03:48:22;;;;;;;11.65;8.70;;;1.80;99.90;;;;;;5005922;28;20464;-58
2022/03/21 03:50:49;;;;;;;12.35;8.85;;;1.80;99.90;;;;;;5006274;28;20089;-58
2022/03/21 03:53:18;;;;;;;12.30;9.13;;;1.80;99.90;;;;;;5012718;28;20069;-56
2022/03/21 03:55:44;;;;;;;10.75;8.52;;;1.80;99.90;;;;;;5025188;28;20186;-58
2022/03/21 03:58:11;;;;;;;12.35;9.48;;;1.70;99.90;;;;;;5023000;28;20137;-58
2022/03/21 04:00:38;;;;;;;11.48;9.05;;;1.70;99.90;;;;;;5024437;28;20125;-57
2022/03/21 04:05:50;;;;;;;11.75;8.80;;;1.60;99.90;;;;;;5005810;28;20489;-56
2022/03/21 04:08:17;;;;;;;13.52;8.98;;;1.70;99.90;;;;;;5005664;28;20659;-58
2022/03/21 04:10:44;;;;;;;12.27;8.73;;;1.60;99.90;;;;;;5006312;28;20133;-58
2022/03/21 04:13:10;;;;;;;12.80;9.10;;;1.60;99.90;;;;;;4996410;28;20050;-57
2022/03/21 04:15:37;;;;;;;12.40;9.55;;;1.60;99.90;;;;;;5024468;28;20968;-58
2022/03/21 04:18:07;;;;;;;13.68;9.27;;;1.60;99.90;;;;;;5024565;28;20050;-58
2022/03/21 04:20:36;;;;;;;13.32;10.02;;;1.60;99.90;;;;;;5022814;28;20077;-58
2022/03/21 04:23:04;;;;;;;12.38;9.55;;;1.60;99.90;;;;;;5024143;28;20400;-58
2022/03/21 04:25:31;;;;;;;12.52;9.65;;;1.50;99.90;;;;;;5024653;28;20061;-57
2022/03/21 04:27:58;;;;;;;12.13;8.85;;;1.50;99.90;;;;;;5024493;28;20654;-58
2022/03/21 04:30:24;;;;;;;13.60;9.13;;;1.50;99.90;;;;;;5024446;28;20049;-58
2022/03/21 04:32:51;;;;;;;13.70;9.52;;;1.50;99.90;;;;;;5005326;28;20081;-58
2022/03/21 04:35:18;;;;;;;12.15;8.90;;;1.50;99.90;;;;;;5010895;28;20599;-58
2022/03/21 04:37:45;;;;;;;14.98;9.57;;;1.40;99.90;;;;;;5023715;28;20055;-57
2022/03/21 04:40:12;;;;;;;13.45;9.95;;;1.40;99.90;;;;;;5023983;28;20136;-58
2022/03/21 04:42:40;;;;;;;12.80;10.00;;;1.40;99.90;;;;;;5022372;28;20652;-58
2022/03/21 04:45:07;;;;;;;13.48;9.80;;;1.40;99.90;;;;;;5022366;28;20088;-57
2022/03/21 04:47:34;;;;;;;14.60;9.43;;;1.40;99.90;;;;;;5024372;28;20081;-57
2022/03/21 04:50:01;;;;;;;12.93;9.80;;;1.40;99.90;;;;;;5023921;28;20072;-58
2022/03/21 04:52:28;;;;;;;12.77;9.30;;;1.40;99.90;;;;;;5003438;28;20053;-58
2022/03/21 04:54:55;;;;;;;13.77;9.85;;;1.40;99.90;;;;;;5004611;28;20516;-58
2022/03/21 04:57:22;;;;;;;14.48;10.80;;;1.40;99.90;;;;;;5005594;28;20127;-58
2022/03/21 04:59:49;;;;;;;12.90;9.38;;;1.40;99.90;;;;;;5004809;28;20112;-58
2022/03/21 05:02:16;;;;;;;13.13;9.98;;;1.30;99.90;;;;;;5005195;28;20140;-58
2022/03/21 05:04:43;;;;;;;14.38;10.48;;;1.30;99.90;;;;;;5005497;28;20571;-58
2022/03/21 05:07:16;;;;;;;13.38;9.85;;;1.30;99.90;;;;;;5005234;28;20145;-58
2022/03/21 05:09:43;;;;;;;;;;;1.30;99.90;;;;;;5004437;28;20045;-57
2022/03/21 05:12:10;;;;;;;13.75;9.13;;;1.30;99.90;;;;;;5005242;28;20036;-60
2022/03/21 05:14:37;;;;;;;13.20;9.35;;;1.30;99.90;;;;;;5004660;28;20666;-58
2022/03/21 05:17:05;;;;;;;13.23;10.27;;;1.20;99.90;;;;;;5004898;28;20430;-58
2022/03/21 05:19:34;;;;;;;14.25;10.65;;;1.20;99.90;;;;;;5004569;28;20081;-58
2022/03/21 05:22:05;;;;;;;14.27;10.43;;;1.20;99.90;;;;;;5006101;28;20057;-57
2022/03/21 05:35:52;;;;;;;14.52;10.32;;;1.20;99.90;;;;;;5004067;28;20057;-59
2022/03/21 05:38:25;;;;;;;14.32;10.00;;;1.00;99.90;;;;;;5014796;28;20512;-58
2022/03/21 05:40:56;;;;;;;12.18;10.00;;;1.00;99.90;;;;;;5004438;28;20050;-59
2022/03/21 05:43:23;;;;;;;14.48;9.88;;;1.10;99.90;;;;;;5004458;28;20045;-58
2022/03/21 05:45:51;;;;;;;15.27;10.23;;;1.10;99.90;;;;;;5018976;28;20472;-59
2022/03/21 05:51:05;;;;;;;13.45;10.35;;;1.20;99.90;;;;;;5011241;28;20092;-58
2022/03/21 05:53:32;;;;;;;15.32;10.65;;;1.30;99.90;;;;;;5003725;28;20594;-59
2022/03/21 05:56:04;;;;;;;15.85;11.45;;;1.30;99.90;;;;;;5006654;28;20084;-59
2022/03/21 05:58:31;;;;;;;14.07;10.90;;;1.30;99.90;;;;;;5010268;28;20085;-59
2022/03/21 06:00:58;;;;;;;16.77;13.13;;;1.30;99.90;;;;;;5021846;28;20132;-59
2022/03/21 06:03:25;;;;;;;16.15;12.32;;;1.30;99.90;;;;;;5011970;28;20042;-61
2022/03/21 06:05:55;;;;;;;15.65;11.65;;;1.30;99.90;;;;;;5001842;28;20583;-59
2022/03/21 06:08:22;;;;;;;16.05;12.05;;;1.30;99.90;;;;;;5000090;28;20077;-58
2022/03/21 06:10:48;;;;;;;17.17;12.55;;;1.30;99.90;;;;;;5001604;28;20070;-57
2022/03/21 06:13:16;;;;;;;16.02;12.60;;;1.30;99.90;;;;;;5006080;28;20171;-59
2022/03/21 06:15:45;;;;;;;17.83;13.98;;;1.30;99.90;;;;;;5020732;28;20099;-58
2022/03/21 06:18:12;;;;;;;17.17;13.50;;;1.30;99.90;;;;;;5020107;28;20085;-60
2022/03/21 06:20:40;;;;;;;15.85;12.23;;;1.40;99.90;;;;;;5019492;28;20133;-59
2022/03/21 06:23:07;;;;;;;17.27;13.27;;;1.40;99.90;;;;;;5010004;28;20077;-59
2022/03/21 06:25:35;;;;;;;17.35;13.13;;;1.40;99.90;;;;;;5010722;28;20474;-57
2022/03/21 06:28:03;;;;;;;17.33;12.98;;;1.50;99.90;;;;;;5009049;28;20085;-57
2022/03/21 06:30:30;;;;;;;16.90;12.55;;;1.50;99.90;;;;;;5011209;28;20077;-60
2022/03/21 06:32:56;;;;;;;16.33;12.95;;;1.60;99.90;;;;;;5008959;28;20133;-60
2022/03/21 06:35:23;;;;;;;16.27;12.73;;;1.60;99.90;;;;;;5008589;28;20611;-59
2022/03/21 06:37:50;;;;;;;18.85;14.27;;;1.60;99.90;;;;;;5006814;28;20042;-60
2022/03/21 06:40:18;;;;;;;16.38;12.88;;;1.70;99.90;;;;;;5009180;28;20128;-59
2022/03/21 06:42:45;;;;;;;16.17;12.50;;;1.80;99.90;;;;;;5009469;28;20116;-59
2022/03/21 06:45:12;;;;;;;18.63;13.90;;;1.80;99.90;;;;;;5009310;28;20160;-60
2022/03/21 06:47:40;;;;;;;17.95;13.73;;;1.90;99.90;;;;;;5014477;28;20049;-58
2022/03/21 06:50:08;;;;;;;17.77;13.07;;;2.00;99.90;;;;;;5019804;28;20391;-59
2022/03/21 06:52:38;;;;;;;17.58;14.32;;;2.00;99.90;;;;;;5013773;28;20556;-60
2022/03/21 06:55:10;;;;;;;19.38;13.80;;;2.00;99.90;;;;;;5027996;28;20127;-60
2022/03/21 06:57:37;;;;;;;18.63;13.20;;;2.10;99.90;;;;;;5017713;28;20045;-58
2022/03/21 07:00:05;;;;;;;19.77;13.35;;;2.10;99.90;;;;;;5017331;28;20566;-60
2022/03/21 07:02:33;;;;;;;17.20;13.07;;;2.20;99.90;;;;;;5006507;28;20046;-59
2022/03/21 07:05:00;;;;;;;18.00;13.65;;;2.20;99.90;;;;;;5004491;28;20077;-60
2022/03/21 07:07:27;;;;;;;16.95;13.05;;;2.30;99.90;;;;;;5010531;28;20049;-59
2022/03/21 07:09:54;;;;;;;19.25;14.20;;;2.40;99.90;;;;;;5015905;28;20128;-60
2022/03/21 07:12:20;;;;;;;16.73;12.68;;;2.50;99.90;;;;;;5021719;28;20068;-61
2022/03/21 07:14:48;;;;;;;16.75;13.63;;;2.60;99.90;;;;;;5020460;28;20144;-60
2022/03/21 07:17:21;;;;;;;16.85;13.75;;;2.70;99.90;;;;;;5022097;28;20049;-60
2022/03/21 07:19:47;;;;;;;19.15;14.57;;;2.80;99.90;;;;;;5020430;28;20049;-62
2022/03/21 07:22:14;;;;;;;19.10;14.40;;;2.90;99.90;;;;;;5010737;28;20702;-61
2022/03/21 07:24:42;;;;;;;19.88;15.00;;;3.00;99.90;;;;;;5018087;28;20095;-61
2022/03/21 07:27:09;;;;;;;17.20;14.50;;;3.10;99.90;;;;;;5018849;28;20077;-60
2022/03/21 07:29:35;;;;;;;18.85;13.75;;;3.20;99.90;;;;;;5000662;28;20081;-61
2022/03/21 07:32:03;;;;;;;15.88;13.55;;;3.30;99.90;;;;;;5007770;28;20436;-60
2022/03/21 07:34:29;;;;;;;18.67;14.68;;;3.40;99.90;;;;;;5021064;28;20063;-61
2022/03/21 07:36:56;;;;;;;16.17;13.43;;;3.50;99.90;;;;;;5021831;28;20241;-60
2022/03/21 07:39:23;;;;;;;17.23;13.32;;;3.60;99.90;;;;;;5017779;28;20394;-61
2022/03/21 07:41:50;;;;;;;16.08;13.68;;;3.70;99.90;;;;;;5004284;28;20046;-61
2022/03/21 07:47:17;;;;;;;17.05;13.55;;;3.80;99.90;;;;;;5021034;28;20147;-61
2022/03/21 07:47:22;;;;;;;17.45;14.15;;;3.90;99.90;;;;;;5023514;28;20233;-59
2022/03/21 07:49:50;;;;;;;16.85;13.43;;;4.00;99.90;;;;;;5023339;28;20175;-61
2022/03/21 07:52:18;;;;;;;15.68;13.00;;;4.10;99.90;;;;;;5023058;28;20465;-61
2022/03/21 07:54:53;;;;;;;17.95;14.25;;;4.20;99.90;;;;;;5022490;28;20269;-61
2022/03/21 07:57:21;;;;;;;19.00;15.10;;;4.30;99.90;;;;;;5023835;28;20533;-60
2022/03/21 07:59:48;;;;;;;16.13;13.27;;;4.40;99.90;;;;;;5021647;28;20148;-61
2022/03/21 08:02:15;;;;;;;17.50;14.30;;;4.50;99.90;;;;;;5022671;28;20495;-61
2022/03/21 08:04:42;;;;;;;17.67;13.77;;;4.60;99.90;;;;;;5022072;28;20061;-61
2022/03/21 08:07:14;;;;;;;18.23;14.30;;;4.70;99.90;;;;;;5022376;28;20268;-61
2022/03/21 08:09:41;;;;;;;17.48;13.65;;;4.80;99.90;;;;;;5020843;28;20049;-61
2022/03/21 08:12:09;;;;;;;18.52;15.35;;;4.90;99.90;;;;;;5012059;28;20484;-60
2022/03/21 08:14:36;;;;;;;16.33;14.00;;;5.00;99.90;;;;;;5006789;28;20042;-61
2022/03/21 08:17:03;;;;;;;19.35;16.50;;;5.20;99.90;;;;;;5002136;28;20521;-61
2022/03/21 08:19:30;;;;;;;18.92;15.45;;;5.30;99.90;;;;;;5001500;28;20085;-60
2022/03/21 08:21:57;;;;;;;18.25;15.73;;;5.50;99.90;;;;;;5003454;28;20077;-61
2022/03/21 08:24:23;;;;;;;21.33;16.80;;;5.60;99.90;;;;;;5002470;28;20058;-61
2022/03/21 08:26:50;;;;;;;18.73;16.42;;;5.70;99.90;;;;;;5003488;28;20128;-61
2022/03/21 08:29:17;;;;;;;19.88;16.40;;;5.80;99.90;;;;;;5002892;28;20145;-60
2022/03/21 08:31:44;;;;;;;21.23;17.23;;;6.00;99.90;;;;;;5003165;28;20085;-61
2022/03/21 08:34:10;;;;;;;21.70;17.10;;;6.10;99.90;;;;;;5002437;28;20505;-62
2022/03/21 08:36:37;;;;;;;19.83;16.33;;;6.20;99.90;;;;;;5003097;28;20092;-60
2022/03/21 08:39:04;;;;;;;18.98;16.20;;;6.30;99.90;;;;;;5003543;28;20050;-59
2022/03/21 08:41:31;;;;;;;19.60;16.45;;;6.40;99.90;;;;;;5003163;28;20141;-59
2022/03/21 08:43:58;;;;;;;18.08;15.13;;;6.50;99.90;;;;;;5001518;28;20058;-60
2022/03/21 08:46:26;;;;;;;18.50;16.10;;;6.70;99.90;;;;;;5014138;28;20081;-60
2022/03/21 08:51:58;;;;;;;18.52;15.30;;;6.90;99.90;;;;;;5012066;28;20052;-60
2022/03/21 08:54:26;;;;;;;22.00;16.60;;;7.00;99.90;;;;;;5014068;28;20524;-60
2022/03/21 08:56:53;;;;;;;18.50;16.30;;;7.10;99.90;;;;;;5020490;28;20139;-61
2022/03/21 08:59:19;;;;;;;20.48;16.40;;;7.20;99.90;;;;;;5010527;28;20140;-62
2022/03/21 09:01:46;;;;;;;19.55;16.95;;;7.30;99.90;;;;;;5018821;28;20054;-62
2022/03/21 09:04:13;;;;;;;19.20;16.13;;;7.40;99.90;;;;;;5000554;28;20510;-60
2022/03/21 09:06:40;;;;;;;18.70;16.70;;;7.50;99.90;;;;;;5004973;28;20076;-60
2022/03/21 09:09:07;;;;;;;18.23;16.25;;;7.60;99.90;;;;;;5005908;28;20068;-60
2022/03/21 09:11:34;;;;;;;16.83;15.05;;;7.80;99.90;;;;;;4999825;28;20510;-59
2022/03/21 09:14:01;;;;;;;18.23;15.65;;;7.90;99.90;;;;;;5018928;28;20437;-60
2022/03/21 09:16:29;;;;;;;18.38;15.43;;;8.00;99.90;;;;;;5019102;28;20500;-59
2022/03/21 09:18:56;;;;;;;18.13;16.00;;;8.20;99.90;;;;;;5019315;28;20057;-59
2022/03/21 09:21:23;;;;;;;17.25;15.48;;;8.40;99.90;;;;;;5008727;28;20141;-60
2022/03/21 09:23:50;;;;;;;18.92;15.88;;;8.50;99.90;;;;;;5010062;28;20501;-60
2022/03/21 09:26:17;;;;;;;17.52;15.65;;;8.60;99.90;;;;;;4998902;28;20062;-61
2022/03/21 09:28:44;;;;;;;16.95;15.20;;;8.80;99.90;;;;;;5006615;28;20408;-61
2022/03/21 09:31:13;;;;;;;16.25;14.43;;;9.00;99.90;;;;;;5009032;28;20367;-61
2022/03/21 09:33:59;;;;;;;17.50;13.75;;;9.10;99.90;;;;;;4999407;28;20061;-61
2022/03/21 09:36:26;;;;;;;16.13;14.35;;;9.30;99.90;;;;;;5013629;28;20092;-61
2022/03/21 09:38:53;;;;;;;15.18;13.15;;;9.50;99.90;;;;;;5017355;28;20142;-61
2022/03/21 09:41:25;;;;;;;13.73;12.32;;;9.60;99.90;;;;;;5005327;28;20162;-61
2022/03/21 09:43:56;;;;;;;13.68;11.77;;;9.80;99.90;;;;;;5015802;28;20424;-61
2022/03/21 09:46:23;;;;;;;12.48;11.18;;;10.00;99.90;;;;;;5012747;28;20560;-61
2022/03/21 09:48:53;;;;;;;12.23;10.25;;;10.10;99.90;;;;;;4991645;28;20164;-61
2022/03/21 09:51:30;;;;;;;11.75;10.27;;;10.30;99.90;;;;;;5008621;28;20133;-61
2022/03/21 09:53:58;;;;;;;11.55;10.25;;;10.40;99.90;;;;;;5003386;28;20049;-61
2022/03/21 09:56:26;;;;;;;11.88;9.60;;;10.50;99.90;;;;;;5005277;28;20061;-61
2022/03/21 09:59:01;;;;;;;10.60;9.48;;;10.70;99.90;;;;;;5007608;28;20081;-61
2022/03/21 10:01:30;;;;;;;11.50;9.68;;;10.80;99.90;;;;;;5013286;28;20554;-61
2022/03/21 10:03:58;;;;;;;10.07;8.95;;;11.00;99.90;;;;;;5018023;28;20543;-62
2022/03/21 10:06:32;;;;;;;10.73;9.50;;;11.10;99.90;;;;;;5011048;28;20077;-61
2022/03/21 10:09:14;;;;;;;10.95;9.27;;;11.20;99.90;;;;;;5002889;28;20060;-61
2022/03/21 10:11:54;;;;;;;9.27;8.18;;;11.40;99.90;;;;;;5003989;28;20292;-61
2022/03/21 10:14:21;;;;;;;11.40;8.68;;;11.50;99.90;;;;;;5001068;28;20125;-61
2022/03/21 10:16:55;;;;;;;10.23;8.38;;;11.60;99.90;;;;;;5017592;28;20128;-62
2022/03/21 10:19:22;;;;;;;10.40;8.65;;;11.70;99.90;;;;;;5017901;28;20046;-61
2022/03/21 10:22:07;;;;;;;8.38;7.05;;;11.90;99.90;;;;;;5018593;28;20107;-61
2022/03/21 10:24:38;;;;;;;9.10;7.30;;;12.00;99.90;;;;;;5013757;28;20084;-61
2022/03/21 10:27:05;;;;;;;9.10;7.90;;;12.10;99.60;;;;;;4997397;28;20077;-59
2022/03/21 10:29:32;;;;;;;10.13;8.50;;;12.20;99.90;;;;;;5006651;28;20128;-61
2022/03/21 10:31:59;;;;;;;10.90;7.47;;;12.30;99.90;;;;;;5001172;28;20141;-61
2022/03/21 10:34:30;;;;;;;9.27;7.70;;;12.40;99.20;;;;;;5011799;28;20417;-62
2022/03/21 10:37:07;;;;;;;9.30;8.10;;;12.60;99.90;;;;;;4999104;28;20112;-61
2022/03/21 10:39:35;;;;;;;10.60;8.32;;;12.70;99.10;;;;;;4997974;28;20089;-61
2022/03/21 10:42:07;;;;;;;9.23;7.75;;;12.70;98.50;;;;;;5002938;28;20045;-62
2022/03/21 10:44:34;;;;;;;9.77;8.25;;;12.80;98.60;;;;;;5021893;28;20053;-61
2022/03/21 10:47:03;;;;;;;10.48;8.70;;;12.90;99.30;;;;;;5011056;28;20065;-61
2022/03/21 10:49:33;;;;;;;9.13;7.90;;;12.30;99.90;;;;;;5014059;28;20515;-61
2022/03/21 10:52:00;;;;;;;8.50;7.22;;;11.40;99.90;;;;;;5009423;28;20468;-61
2022/03/21 10:54:36;;;;;;;9.07;7.85;;;10.70;99.90;;;;;;5006734;28;20123;-61
2022/03/21 10:57:03;;;;;;;9.50;8.23;;;10.30;99.90;;;;;;5013068;28;20124;-61
2022/03/21 10:59:31;;;;;;;9.73;8.65;;;9.90;99.90;;;;;;5000501;28;20151;-61
2022/03/21 11:02:15;;;;;;;10.98;8.77;;;9.70;99.90;;;;;;5011499;28;20081;-62
2022/03/21 11:04:46;;;;;;;10.15;8.52;;;9.60;99.90;;;;;;5021588;28;20569;-59
2022/03/21 11:07:12;;;;;;;9.10;7.97;;;9.60;99.90;;;;;;5005766;28;20085;-61
2022/03/21 11:09:45;;;;;;;10.07;8.23;;;9.60;99.90;;;;;;5011176;28;20052;-61
2022/03/21 11:12:15;;;;;;;10.55;8.43;;;9.60;99.90;;;;;;4999698;28;20574;-61
2022/03/21 11:14:42;;;;;;;12.35;9.15;;;9.70;99.90;;;;;;5014058;28;20128;-61
2022/03/21 11:17:09;;;;;;;9.98;8.73;;;9.80;99.90;;;;;;5011973;28;20125;-61
2022/03/21 11:19:35;;;;;;;9.95;8.95;;;9.90;99.90;;;;;;5016564;28;20152;-61
2022/03/21 11:22:02;;;;;;;9.45;8.45;;;10.00;99.90;;;;;;5010484;28;20156;-61
2022/03/21 11:24:29;;;;;;;11.07;9.77;;;10.10;99.90;;;;;;5021009;28;20140;-62
2022/03/21 11:27:08;;;;;;;11.15;9.90;;;10.00;99.90;;;;;;4989968;28;20310;-61
2022/03/21 11:29:41;;;;;;;11.50;9.07;;;10.10;99.90;;;;;;4985280;28;20132;-61
2022/03/21 11:32:12;;;;;;;12.00;10.70;;;10.40;99.90;;;;;;4987741;28;20487;-61
2022/03/21 11:35:07;;;;;;;9.77;8.77;;;10.60;99.90;;;;;;5019916;28;20472;-61
2022/03/21 11:37:34;;;;;;;10.18;9.15;;;10.90;99.90;;;;;;4999201;28;20045;-61
2022/03/21 11:40:27;;;;;;;10.52;9.45;;;11.20;99.90;;;;;;5008853;28;20049;-61
2022/03/21 11:42:56;;;;;;;10.27;9.27;;;11.50;99.90;;;;;;5009884;28;20053;-62
2022/03/21 11:45:26;;;;;;;8.82;7.93;;;11.80;99.90;;;;;;5021073;28;20263;-61
2022/03/21 11:48:18;;;;;;;10.25;9.25;;;12.10;99.90;;;;;;5003438;28;20089;-61
2022/03/21 11:51:00;;;;;;;10.88;9.80;;;12.30;99.90;;;;;;5000931;28;20478;-61
2022/03/21 11:53:28;;;;;;;11.02;9.93;;;12.60;99.90;;;;;;5000134;28;20796;-61
2022/03/21 11:55:55;;;;;;;10.88;9.88;;;12.80;99.90;;;;;;4999978;28;20050;-62
2022/03/21 11:58:40;;;;;;;10.05;9.13;;;13.10;99.90;;;;;;5005893;28;20405;-59
2022/03/21 12:01:13;;;;;;;10.48;9.43;;;13.50;99.90;;;;;;5020651;28;20049;-61
2022/03/21 12:03:43;;;;;;;10.13;9.13;;;13.80;99.90;;;;;;5020746;28;20140;-61
2022/03/21 12:06:20;;;;;;;10.57;9.50;;;14.10;99.90;;;;;;5018872;28;20140;-61
2022/03/21 12:08:58;;;;;;;9.75;8.82;;;14.20;99.90;;;;;;5020736;28;20053;-61
2022/03/21 12:11:46;;;;;;;9.85;8.90;;;14.40;99.90;;;;;;5019375;28;20049;-62
2022/03/21 12:17:01;;;;;;;8.95;8.07;;;14.70;99.90;;;;;;5012388;28;20050;-60
2022/03/21 12:19:57;;;;;;;9.00;8.18;;;15.00;99.90;;;;;;5005057;28;20119;-60
2022/03/21 12:22:30;;;;;;;9.90;8.90;;;15.20;99.90;;;;;;5007705;28;20081;-59
2022/03/21 12:25:16;;;;;;;;;;;15.60;99.90;;;;;;5019659;28;20508;-60
2022/03/21 12:27:52;;;;;;;7.70;6.90;;;15.90;99.90;;;;;;5008174;28;19961;-60
2022/03/21 12:30:23;;;;;;;7.90;7.10;;;16.10;99.90;;;;;;5016728;28;20069;-59
2022/03/21 12:33:09;;;;;;;8.55;7.65;;;16.20;99.90;;;;;;5014631;28;20053;-59
2022/03/21 12:35:42;;;;;;;8.90;8.07;;;16.50;99.90;;;;;;5000243;28;20193;-60
2022/03/21 12:38:09;;;;;;;7.93;7.22;;;16.80;99.50;;;;;;5010688;28;20081;-60
2022/03/21 12:40:41;;;;;;;8.15;7.35;;;17.10;97.30;;;;;;5020255;28;20072;-62
2022/03/21 12:43:08;;;;;;;8.32;7.43;;;17.50;95.30;;;;;;5012778;28;20143;-60
2022/03/21 12:45:35;;;;;;;8.75;7.63;;;17.80;94.00;;;;;;5007548;28;20666;-60
2022/03/21 12:48:05;;;;;;;10.15;8.13;;;18.00;91.60;;;;;;5011150;28;20088;-60
2022/03/21 12:50:32;;;;;;;8.27;7.45;;;18.10;91.70;;;;;;5000544;28;20049;-60
2022/03/21 12:53:07;;;;;;;8.60;7.75;;;18.30;91.40;;;;;;5000708;28;20066;-60
2022/03/21 12:55:39;;;;;;;7.13;6.43;;;18.60;90.40;;;;;;5010228;28;20095;-60
2022/03/21 12:58:10;;;;;;;8.68;7.78;;;19.10;88.30;;;;;;4999751;28;20129;-60
2022/03/21 13:00:38;;;;;;;7.88;7.07;;;19.30;86.80;;;;;;5006448;28;20508;-60
2022/03/21 13:03:06;;;;;;;8.48;7.68;;;19.50;83.80;;;;;;5006623;28;20058;-60
2022/03/21 13:11:24;;;;;;;7.63;6.93;;;19.10;80.60;;;;;;5018746;28;20176;-60
2022/03/21 13:13:54;;;;;;;7.10;6.40;;;19.40;81.70;;;;;;5007188;28;20154;-60
2022/03/21 13:16:21;;;;;;;7.05;6.35;;;19.70;78.50;;;;;;5016137;28;20060;-60
2022/03/21 13:18:50;;;;;;;7.47;6.30;;;20.00;75.10;;;;;;5010136;28;20045;-61
2022/03/21 13:21:19;;;;;;;7.57;6.78;;;20.30;73.10;;;;;;5010893;28;20077;-60
2022/03/21 13:23:47;;;;;;;7.63;6.38;;;20.40;70.20;;;;;;5011197;28;20085;-60